ADDS METAR Data INFO
IDs: Format: Raw Decoded Include TAF

Data at: 0144 UTC 26 Feb 2018

KAIO 260135Z AUTO 00000KT 10SM CLR M01/M01 A3003 RMK AO2
KAIO 260115Z AUTO 00000KT 10SM CLR 00/M00 A3003 RMK AO2
KAIO 260055Z AUTO 00000KT 10SM CLR 01/M00 A3002 RMK AO2
KAIO 260035Z AUTO 00000KT 10SM CLR 01/M01 A3002 RMK AO2
KAIO 260015Z AUTO 19004KT 10SM CLR 01/M00 A3002 RMK AO2
KAIO 252355Z AUTO 22006KT 10SM CLR 02/M01 A3002 RMK AO2
KAIO 252335Z AUTO 22004KT 10SM CLR 03/M00 A3001 RMK AO2
KAIO 252315Z AUTO 23005KT 10SM CLR 04/M01 A3001 RMK AO2
KAIO 252255Z AUTO 23008KT 10SM CLR 04/M02 A3002 RMK AO2
KAIO 252235Z AUTO 23009KT 10SM CLR 04/M00 A3001 RMK AO2
KAIO 252215Z AUTO 21010KT 10SM CLR 04/M01 A3000 RMK AO2
KAIO 252155Z AUTO 22011KT 10SM CLR 04/M02 A3000 RMK AO2
KAIO 252135Z AUTO 22011KT 10SM CLR 05/M01 A2999 RMK AO2
KAIO 252115Z AUTO 22010KT 10SM CLR 05/M02 A2999 RMK AO2
KAIO 252055Z AUTO 22011KT 10SM CLR 05/M03 A2999 RMK AO2
KAIO 252035Z AUTO 22009KT 10SM CLR 05/M02 A2999 RMK AO2
KAIO 252015Z AUTO 24010KT 10SM CLR 04/M03 A2999 RMK AO2
KAIO 251955Z AUTO 24008G14KT 10SM CLR 04/M02 A2998 RMK AO2
KAIO 251935Z AUTO 24008KT 10SM CLR 04/M03 A2998 RMK AO2
KAIO 251915Z AUTO 24010KT 220V280 10SM CLR 04/M03 A2998 RMK AO2
KAIO 251855Z AUTO 24008KT 10SM CLR 03/M04 A2999 RMK AO2
KAIO 251835Z AUTO 25011KT 10SM CLR 03/M03 A2998 RMK AO2
KAIO 251815Z AUTO 24010KT 10SM CLR 03/M03 A2999 RMK AO2
KAIO 251755Z AUTO 24010KT 10SM CLR 02/M04 A2999 RMK AO2
KAIO 251735Z AUTO 26010KT 10SM CLR 02/M03 A2998 RMK AO2
KAIO 251715Z AUTO 24010KT 10SM CLR 01/M03 A2997 RMK AO2
KAIO 251655Z AUTO 25011KT 10SM CLR 01/M04 A2996 RMK AO2
KAIO 251635Z AUTO 27011KT 10SM CLR 00/M04 A2996 RMK AO2
KAIO 251615Z AUTO 27012KT 10SM CLR 00/M04 A2994 RMK AO2
KAIO 251555Z AUTO 25011KT 10SM CLR M00/M04 A2993 RMK AO2
KAIO 251535Z AUTO 24009KT 10SM CLR M01/M04 A2992 RMK AO2
KAIO 251515Z AUTO 24010KT 10SM CLR M02/M05 A2993 RMK AO2
KAIO 251455Z AUTO 24010KT 10SM CLR M02/M05 A2992 RMK AO2
KAIO 251435Z AUTO 24010G16KT 10SM CLR M03/M05 A2992 RMK AO2
KAIO 251415Z AUTO 23011KT 10SM CLR M04/M06 A2991 RMK AO2
KAIO 251355Z AUTO 22013KT 10SM CLR M04/M06 A2991 RMK AO2
KAIO 251335Z AUTO 23011KT 10SM CLR M05/M07 A2990 RMK AO2
KAIO 251315Z AUTO 22010KT 10SM CLR M06/M07 A2989 RMK AO2
KAIO 251255Z AUTO 23010KT 10SM CLR M06/M07 A2989 RMK AO2
KAIO 251235Z AUTO 22011KT 10SM CLR M06/M07 A2989 RMK AO2
KAIO 251215Z AUTO 23010KT 10SM CLR M06/M07 A2988 RMK AO2
KAIO 251155Z AUTO 22010KT 10SM CLR M06/M07 A2988 RMK AO2
KAIO 251135Z AUTO 23009KT 10SM CLR M06/M08 A2987 RMK AO2
KAIO 251115Z AUTO 24008KT 10SM CLR M06/M08 A2986 RMK AO2
KAIO 251055Z AUTO 24009KT 10SM CLR M06/M08 A2986 RMK AO2
KAIO 251035Z AUTO 24007KT 10SM CLR M06/M08 A2986 RMK AO2
KAIO 251015Z AUTO 24008KT 10SM CLR M06/M08 A2985 RMK AO2
KAIO 250955Z AUTO 23008KT 10SM CLR M06/M08 A2985 RMK AO2
KAIO 250935Z AUTO 23008KT 10SM CLR M05/M08 A2984 RMK AO2
KAIO 250915Z AUTO 25008KT 10SM CLR M05/M08 A2983 RMK AO2
KAIO 250855Z AUTO 26007KT 10SM CLR M05/M07 A2983 RMK AO2
KAIO 250835Z AUTO 25007KT 10SM CLR M05/M07 A2985 RMK AO2
KAIO 250815Z AUTO 26008G15KT 10SM CLR M04/M07 A2984 RMK AO2
KAIO 250755Z AUTO 28009G15KT 10SM CLR M04/M07 A2984 RMK AO2
KAIO 250735Z AUTO 28012G21KT 10SM CLR M04/M07 A2984 RMK AO2
KAIO 250715Z AUTO 28013G18KT 10SM CLR M04/M05 A2983 RMK AO2
KAIO 250655Z AUTO 28009G17KT 10SM CLR M04/M05 A2983 RMK AO2
KAIO 250635Z AUTO 28012G20KT 10SM FEW017 FEW025 M03/M05 A2981 RMK AO2
KAIO 250615Z AUTO 28016KT 10SM BKN017 BKN026 M03/M04 A2981 RMK AO2
KAIO 250555Z AUTO 28013G19KT 10SM SCT018 OVC024 M02/M03 A2978 RMK AO2
KAIO 250535Z AUTO 27011G18KT 10SM OVC026 M01/M02 A2977 RMK AO2
KAIO 250515Z AUTO 26011KT 10SM OVC028 M02/M02 A2977 RMK AO2
KAIO 250455Z AUTO 25009KT 10SM BKN030 M02/M02 A2976 RMK AO2
KAIO 250435Z AUTO 24011KT 10SM OVC033 M02/M02 A2975 RMK AO2
KAIO 250415Z AUTO 23013KT 9SM OVC033 M02/M02 A2974 RMK AO2
KAIO 250355Z AUTO 23013KT 10SM OVC035 M02/M02 A2974 RMK AO2
KAIO 250335Z AUTO 22012KT 10SM OVC034 M02/M02 A2973 RMK AO2
KAIO 250315Z AUTO 23011KT 10SM OVC034 M02/M02 A2973 RMK AO2
KAIO 250255Z AUTO 24009KT 10SM BKN038 OVC044 M02/M02 A2972 RMK AO2
KAIO 250235Z AUTO 24010KT 10SM FEW017 OVC045 M02/M02 A2972 RMK AO2
KAIO 250215Z AUTO 25013KT 10SM BKN015 OVC048 M02/M02 A2972 RMK AO2
KAIO 250155Z AUTO 26011G16KT 10SM OVC014 M02/M02 A2973 RMK AO2
KAIO 250135Z AUTO 26011G18KT 10SM BKN013 BKN018 OVC065 M02/M02 A2972 RMK AO2
KAIO 250115Z AUTO 26013G19KT BKN012 OVC065 M02/M02 A2971 RMK AO2
KAIO 250055Z AUTO 26014KT 10SM BKN012 OVC065 M01/M02 A2971 RMK AO2
KAIO 250035Z AUTO 26011KT 10SM SCT010 SCT044 OVC065 M01/M01 A2970 RMK AO2
KAIO 250015Z AUTO 26011KT 10SM BKN010 BKN014 OVC044 M01/M01 A2969 RMK AO2
KAIO 242355Z AUTO 28010G15KT 10SM OVC013 M01/M01 A2969 RMK AO2
KAIO 242335Z AUTO 26011KT 6SM -UP BKN014 M01/M01 A2968 RMK AO2
KAIO 242315Z AUTO 26008KT 2 1/2SM -UP FEW009 BKN015 M01/M01 A2967 RMK AO2
KAIO 242255Z AUTO 25008KT 4SM BR FEW008 BKN013 M01/M01 A2967 RMK AO2
KAIO 242235Z AUTO 27007KT 3SM BR SCT009 BKN014 M01/M01 A2967 RMK AO2
KAIO 242215Z AUTO 28007KT 6SM BR BKN009 BKN020 BKN031 M01/M01 A2967 RMK AO2
KAIO 242155Z AUTO 30007G12KT 5SM BR FEW008 SCT026 SCT031 M01/M01 A2967 RMK AO2
KAIO 242135Z AUTO 30009KT 3SM BR FEW013 FEW020 FEW027 M01/M01 A2967 RMK AO2
KAIO 242115Z AUTO 30011KT 3SM BR FEW006 FEW013 FEW019 M00/M00 A2967 RMK AO2
KAIO 242055Z AUTO 29006KT 1 3/4SM BR SCT005 M00/M00 A2969 RMK AO2 P0001
KAIO 242035Z AUTO 26006KT 1SM -UP BKN004 M00/M00 A2971 RMK AO2
KAIO 242015Z AUTO 25006KT 3/4SM BR OVC004 M00/M00 A2972 RMK AO2
KAIO 241955Z AUTO 25006KT 3/4SM BR OVC005 M00/M00 A2973 RMK AO2 P0001
KAIO 241935Z AUTO 24004KT 1/2SM BR BKN004 M00/M00 A2974 RMK AO2
KAIO 241915Z AUTO 24006KT 1/2SM BR BKN004 M00/M00 A2976 RMK AO2
KAIO 241855Z AUTO 19003KT 1SM BR BKN005 M00/M00 A2977 RMK AO2
KAIO 241835Z AUTO 00000KT 1 1/4SM BR SCT004 M00/M00 A2978 RMK AO2
KAIO 241815Z AUTO 11004KT 1/2SM FZFG BKN005 BKN009 M00/M00 A2980 RMK AO2
KAIO 241755Z AUTO 13005KT 1 1/4SM BR BKN005 BKN008 M01/M01 A2982 RMK AO2 P0001
KAIO 241735Z AUTO 13005KT 1 1/4SM BR BKN004 M01/M01 A2982 RMK AO2
KAIO 241715Z AUTO 10005KT 1SM BR BKN005 BKN013 M01/M01 A2984 RMK AO2
KAIO 241655Z AUTO 11005KT 3/4SM BR BKN006 BKN013 M01/M01 A2984 RMK AO2
KAIO 241635Z AUTO VRB05KT 3/4SM BR BKN006 BKN013 M01/M01 A2987 RMK AO2
KAIO 241615Z AUTO 13004KT 1/2SM BR BKN005 M02/M02 A2988 RMK AO2
KAIO 241555Z AUTO 11003KT 1/2SM -UP BKN006 M02/M02 A2991 RMK AO2
KAIO 241535Z AUTO 10005KT 1SM BR BKN006 M02/M02 A2992 RMK AO2
KAIO 241515Z AUTO 10008KT 1 1/2SM BR SCT008 M03/M03 A2992 RMK AO2
KAIO 241455Z AUTO 08008KT 1 1/4SM BR SCT009 BKN013 M03/M03 A2993 RMK AO2
KAIO 241435Z AUTO 09007KT 1 3/4SM BR SCT010 BKN014 OVC022 M03/M03 A2995 RMK AO2
KAIO 241415Z AUTO 12007KT 3SM BR FEW017 BKN022 OVC035 M03/M03 A2998 RMK AO2
KAIO 241355Z AUTO 12006KT 6SM BR OVC036 M03/M04 A2998 RMK AO2